createdAt,value
2023-01-05T00:01:22.353Z,7.50
2023-01-05T00:03:55.310Z,7.50
2023-01-05T00:06:22.441Z,7.50
2023-01-05T00:08:49.163Z,7.60
2023-01-05T00:11:35.609Z,7.50
2023-01-05T00:14:30.932Z,7.50
2023-01-05T00:17:16.149Z,7.50
2023-01-05T00:20:01.180Z,7.60
2023-01-05T00:22:31.574Z,7.70
2023-01-05T00:24:59.003Z,7.90
2023-01-05T00:27:25.944Z,8.20
2023-01-05T00:29:54.635Z,8.40
2023-01-05T00:32:21.303Z,8.50
2023-01-05T00:34:48.137Z,8.50
2023-01-05T00:37:14.802Z,8.50
2023-01-05T00:39:41.456Z,8.40
2023-01-05T00:42:08.087Z,8.40
2023-01-05T00:44:38.344Z,8.40
2023-01-05T00:47:05.015Z,8.40
2023-01-05T00:53:16.407Z,8.10
2023-01-05T00:55:44.029Z,8.00
2023-01-05T00:58:10.687Z,7.90
2023-01-05T01:00:42.396Z,7.90
2023-01-05T01:03:14.042Z,7.90
2023-01-05T01:06:37.516Z,7.80
2023-01-05T01:08:38.041Z,7.80
2023-01-05T01:11:17.014Z,7.80
2023-01-05T01:13:48.811Z,7.80
2023-01-05T01:16:15.983Z,7.70
2023-01-05T01:18:42.663Z,7.70
2023-01-05T01:21:09.386Z,7.70
2023-01-05T01:23:37.810Z,7.70
2023-01-05T01:26:05.571Z,7.70
2023-01-05T01:28:32.436Z,7.80
2023-01-05T01:30:59.363Z,7.80
2023-01-05T01:33:26.405Z,7.80
2023-01-05T01:35:53.148Z,7.80
2023-01-05T01:38:19.859Z,7.80
2023-01-05T01:40:47.260Z,7.80
2023-01-05T01:43:13.910Z,7.80
2023-01-05T01:45:41.508Z,7.70
2023-01-05T01:48:10.640Z,7.70
2023-01-05T01:50:47.382Z,7.70
2023-01-05T01:53:16.655Z,7.80
2023-01-05T01:55:46.669Z,7.80
2023-01-05T01:58:20.809Z,7.70
2023-01-05T02:00:47.795Z,7.70
2023-01-05T02:03:19.868Z,7.70
2023-01-05T02:05:46.550Z,7.80
2023-01-05T02:08:14.367Z,7.80
2023-01-05T02:10:42.136Z,7.90
2023-01-05T02:13:08.729Z,7.90
2023-01-05T02:15:41.864Z,7.90
2023-01-05T02:18:27.212Z,7.90
2023-01-05T02:20:53.811Z,7.90
2023-01-05T02:23:26.565Z,7.90
2023-01-05T02:26:11.538Z,7.90
2023-01-05T02:28:57.104Z,7.90
2023-01-05T02:31:30.242Z,7.80
2023-01-05T02:34:01.027Z,7.90
2023-01-05T02:36:28.879Z,7.90
2023-01-05T02:38:58.715Z,7.80
2023-01-05T02:41:28.443Z,7.70
2023-01-05T02:43:56.434Z,7.70
2023-01-05T02:46:30.111Z,7.60
2023-01-05T02:48:58.149Z,7.50
2023-01-05T02:51:31.399Z,7.50
2023-01-05T02:54:04.270Z,7.50
2023-01-05T02:56:34.232Z,7.60
2023-01-05T02:59:09.457Z,7.60
2023-01-05T03:01:39.703Z,7.60
2023-01-05T03:04:19.339Z,7.60
2023-01-05T03:06:57.274Z,7.60
2023-01-05T03:09:26.220Z,7.60
2023-01-05T03:12:11.619Z,7.60
2023-01-05T03:14:42.253Z,7.60
2023-01-05T03:17:10.738Z,7.60
2023-01-05T03:19:41.005Z,7.60
2023-01-05T03:22:36.116Z,7.60
2023-01-05T03:25:21.938Z,7.60
2023-01-05T03:28:07.830Z,7.60
2023-01-05T03:31:05.269Z,7.60
2023-01-05T03:34:04.083Z,7.50
2023-01-05T03:36:33.085Z,7.50
2023-01-05T03:39:02.824Z,7.50
2023-01-05T03:41:29.967Z,7.50
2023-01-05T03:43:56.704Z,7.50
2023-01-05T03:46:23.498Z,7.50
2023-01-05T03:48:50.443Z,7.50
2023-01-05T03:51:17.463Z,7.50
2023-01-05T03:53:44.250Z,7.40
2023-01-05T03:56:10.910Z,7.50
2023-01-05T03:58:43.687Z,7.50
2023-01-05T04:01:10.432Z,7.40
2023-01-05T04:03:37.252Z,7.30
2023-01-05T04:06:04.068Z,7.30
2023-01-05T04:08:30.689Z,7.30
2023-01-05T04:10:57.489Z,7.30
2023-01-05T04:13:25.059Z,7.40
2023-01-05T04:15:51.776Z,7.30
2023-01-05T04:18:18.451Z,7.40
2023-01-05T04:20:45.026Z,7.40
2023-01-05T04:23:11.695Z,7.40
2023-01-05T04:25:38.282Z,7.50
2023-01-05T04:28:04.892Z,7.50
2023-01-05T04:30:31.459Z,7.50
2023-01-05T04:32:58.061Z,7.50
2023-01-05T04:35:50.346Z,7.50
2023-01-05T04:38:17.362Z,7.50
2023-01-05T04:40:47.986Z,7.50
2023-01-05T04:43:14.687Z,7.50
2023-01-05T04:45:41.302Z,7.50
2023-01-05T04:48:07.987Z,7.50
2023-01-05T04:50:34.712Z,7.50
2023-01-05T04:53:01.366Z,7.60
2023-01-05T04:55:28.075Z,7.60
2023-01-05T04:57:54.744Z,7.70
2023-01-05T05:00:21.804Z,7.70
2023-01-05T05:02:54.813Z,7.90
2023-01-05T05:05:21.510Z,8.30
2023-01-05T05:07:48.087Z,8.50
2023-01-05T05:10:17.898Z,8.70
2023-01-05T05:12:44.709Z,8.80
2023-01-05T05:15:11.460Z,9.20
2023-01-05T05:17:38.043Z,9.30
2023-01-05T05:20:05.700Z,9.40
2023-01-05T05:22:32.291Z,9.40
2023-01-05T05:24:58.920Z,9.30
2023-01-05T05:27:25.569Z,9.20
2023-01-05T05:29:52.296Z,9.20
2023-01-05T05:32:31.372Z,9.20
2023-01-05T05:34:58.016Z,9.30
2023-01-05T05:37:24.664Z,9.50
2023-01-05T05:39:51.282Z,9.70
2023-01-05T05:42:17.893Z,9.90
2023-01-05T05:44:44.541Z,9.90
2023-01-05T05:47:11.170Z,9.90
2023-01-05T05:49:37.785Z,9.80
2023-01-05T05:52:04.556Z,9.80
2023-01-05T05:54:31.173Z,9.80
2023-01-05T05:56:57.782Z,9.80
2023-01-05T05:59:24.407Z,9.80
2023-01-05T06:01:52.488Z,10.10
2023-01-05T06:04:19.429Z,10.10
2023-01-05T06:06:46.115Z,10.10
2023-01-05T06:09:12.768Z,10.40
2023-01-05T06:11:39.439Z,10.60
2023-01-05T06:14:06.428Z,10.80
2023-01-05T06:16:33.095Z,11.00
2023-01-05T06:18:59.765Z,10.80
2023-01-05T06:21:26.382Z,11.20
2023-01-05T06:23:52.975Z,11.10
2023-01-05T06:26:20.003Z,11.20
2023-01-05T06:28:46.557Z,11.30
2023-01-05T06:31:13.217Z,11.40
2023-01-05T06:33:39.889Z,11.40
2023-01-05T06:36:15.613Z,11.70
2023-01-05T06:38:42.230Z,11.70
2023-01-05T06:41:08.808Z,11.50
2023-01-05T06:43:35.733Z,11.70
2023-01-05T06:46:02.385Z,11.90
2023-01-05T06:48:29.081Z,11.90
2023-01-05T06:50:55.706Z,11.90
2023-01-05T06:53:22.337Z,11.70
2023-01-05T06:55:48.959Z,11.80
2023-01-05T06:58:15.593Z,12.30
2023-01-05T07:00:42.195Z,12.10
2023-01-05T07:03:11.749Z,12.30
2023-01-05T07:05:38.343Z,12.30
2023-01-05T07:08:05.062Z,12.30
2023-01-05T07:10:31.667Z,12.20
2023-01-05T07:12:58.288Z,12.30
2023-01-05T07:15:24.868Z,12.30
2023-01-05T07:17:51.427Z,12.30
2023-01-05T07:20:18.092Z,12.30
2023-01-05T07:22:44.682Z,12.20
2023-01-05T07:25:11.522Z,12.40
2023-01-05T07:27:41.268Z,12.30
2023-01-05T07:30:08.245Z,12.20
2023-01-05T07:32:34.842Z,12.10
2023-01-05T07:35:01.491Z,12.10
2023-01-05T07:37:28.147Z,12.20
2023-01-05T07:39:54.730Z,12.40
2023-01-05T07:42:21.455Z,12.40
2023-01-05T07:44:48.097Z,12.40
2023-01-05T07:47:14.925Z,12.40
2023-01-05T07:49:41.527Z,12.60
2023-01-05T07:52:08.206Z,12.70
2023-01-05T07:54:42.935Z,12.60
2023-01-05T07:57:09.541Z,12.70
2023-01-05T07:59:36.156Z,12.60
2023-01-05T08:02:03.245Z,12.70
2023-01-05T08:04:29.993Z,12.70
2023-01-05T08:06:56.718Z,12.60
2023-01-05T08:09:42.061Z,12.50
2023-01-05T08:12:08.705Z,12.50
2023-01-05T08:14:35.338Z,12.60
2023-01-05T08:17:02.042Z,12.60
2023-01-05T08:19:28.690Z,12.70
2023-01-05T08:21:55.309Z,12.80
2023-01-05T08:24:21.908Z,12.70
2023-01-05T08:26:50.474Z,12.80
2023-01-05T08:29:21.264Z,12.80
2023-01-05T08:31:48.053Z,12.80
2023-01-05T08:34:14.879Z,12.80
2023-01-05T08:36:41.660Z,12.80
2023-01-05T08:39:10.610Z,12.80
2023-01-05T08:41:38.022Z,12.80
2023-01-05T08:44:06.285Z,12.80
2023-01-05T08:46:34.318Z,12.80
2023-01-05T08:49:02.426Z,12.80
2023-01-05T08:51:29.516Z,12.80
2023-01-05T08:53:56.639Z,12.80
2023-01-05T08:56:25.204Z,12.70
2023-01-05T08:58:52.916Z,12.90
2023-01-05T09:01:21.993Z,12.90
2023-01-05T09:03:48.854Z,12.90
2023-01-05T09:06:15.559Z,13.00
2023-01-05T09:08:42.930Z,12.80
2023-01-05T09:11:13.866Z,12.90
2023-01-05T09:13:41.331Z,13.00
2023-01-05T09:16:09.086Z,13.00
2023-01-05T09:18:35.942Z,13.00
2023-01-05T09:21:02.781Z,12.90
2023-01-05T09:23:30.543Z,12.80
2023-01-05T09:25:57.171Z,12.80
2023-01-05T09:28:23.985Z,12.80
2023-01-05T09:30:51.316Z,12.60
2023-01-05T09:33:18.271Z,12.70
2023-01-05T09:35:44.983Z,12.80
2023-01-05T09:38:11.629Z,13.00
2023-01-05T09:40:44.600Z,12.70
2023-01-05T09:43:18.063Z,12.90
2023-01-05T09:45:44.783Z,12.90
2023-01-05T09:48:13.889Z,13.00
2023-01-05T09:50:42.424Z,13.20
2023-01-05T09:53:10.088Z,13.10
2023-01-05T09:55:37.236Z,13.10
2023-01-05T09:58:29.658Z,13.00
2023-01-05T10:01:17.044Z,13.00
2023-01-05T10:04:03.946Z,12.80
2023-01-05T10:06:34.575Z,12.70
2023-01-05T10:09:03.030Z,12.80
2023-01-05T10:11:48.483Z,12.80
2023-01-05T10:14:22.617Z,12.60
2023-01-05T10:16:53.963Z,12.60
2023-01-05T10:19:34.610Z,12.60
2023-01-05T10:22:04.234Z,12.40
2023-01-05T10:24:46.473Z,12.50
2023-01-05T10:27:28.694Z,12.50
2023-01-05T10:30:15.065Z,12.70
2023-01-05T10:32:50.575Z,12.40
2023-01-05T10:35:58.892Z,12.50
2023-01-05T10:38:13.335Z,12.40
2023-01-05T10:40:57.644Z,12.50
2023-01-05T10:43:33.506Z,12.30
2023-01-05T10:46:31.261Z,12.50
2023-01-05T10:48:48.143Z,12.60
2023-01-05T10:51:21.819Z,12.80
2023-01-05T10:53:48.998Z,12.70
2023-01-05T10:56:22.337Z,12.80
2023-01-05T10:58:49.003Z,12.60
2023-01-05T11:01:25.250Z,12.70
2023-01-05T11:04:26.529Z,12.90
2023-01-05T11:06:41.268Z,12.80
2023-01-05T11:09:22.832Z,13.00
2023-01-05T11:11:57.276Z,13.00
2023-01-05T11:14:25.918Z,13.10
2023-01-05T11:16:54.280Z,13.30
2023-01-05T11:19:22.680Z,13.30
2023-01-05T11:21:49.435Z,13.00
2023-01-05T11:24:35.626Z,13.00
2023-01-05T11:27:03.940Z,13.30
2023-01-05T11:29:31.384Z,13.40
2023-01-05T11:31:58.295Z,13.30
2023-01-05T11:34:25.142Z,13.20
2023-01-05T11:37:12.147Z,13.10
2023-01-05T11:39:38.908Z,13.10
2023-01-05T11:42:26.097Z,13.10
2023-01-05T11:44:55.512Z,12.90
2023-01-05T11:47:25.378Z,12.50
2023-01-05T11:50:02.909Z,12.20
2023-01-05T11:52:38.672Z,12.10
2023-01-05T11:55:23.970Z,12.10
2023-01-05T11:57:59.399Z,11.80
2023-01-05T12:00:26.826Z,11.80
2023-01-05T12:02:59.894Z,11.60
2023-01-05T12:05:35.945Z,11.60
2023-01-05T12:08:09.386Z,11.70
2023-01-05T12:10:56.749Z,11.60
2023-01-05T12:13:23.492Z,11.50
2023-01-05T12:16:08.503Z,11.40
2023-01-05T12:18:35.339Z,11.30
2023-01-05T12:21:14.244Z,11.40
2023-01-05T12:23:47.083Z,11.30
2023-01-05T12:26:16.020Z,11.30
2023-01-05T12:35:00.271Z,11.00
2023-01-05T12:37:45.859Z,11.10
2023-01-05T12:40:15.759Z,11.10
2023-01-05T12:42:44.436Z,11.00
2023-01-05T12:45:17.099Z,11.00
2023-01-05T12:47:44.010Z,10.90
2023-01-05T12:50:44.270Z,10.80
2023-01-05T12:53:16.976Z,10.80
2023-01-05T12:55:46.191Z,10.80
2023-01-05T12:58:17.187Z,10.80
2023-01-05T13:00:46.442Z,10.80
2023-01-05T13:03:30.578Z,10.80
2023-01-05T13:06:15.878Z,10.90
2023-01-05T13:08:47.476Z,10.90
2023-01-05T13:11:29.416Z,11.00
2023-01-05T13:14:05.371Z,11.20
2023-01-05T13:16:38.002Z,11.20
2023-01-05T13:19:10.235Z,11.30
2023-01-05T13:21:38.369Z,11.00
2023-01-05T13:24:13.344Z,10.90
2023-01-05T13:26:51.473Z,10.90
2023-01-05T13:29:23.607Z,10.90
2023-01-05T13:31:53.191Z,10.90
2023-01-05T13:34:40.122Z,11.00
2023-01-05T13:37:10.003Z,10.90
2023-01-05T13:39:55.674Z,10.80
2023-01-05T13:42:47.470Z,10.80
2023-01-05T13:45:14.146Z,11.10
2023-01-05T13:47:57.137Z,11.00
2023-01-05T13:50:38.057Z,11.20
2023-01-05T13:53:07.188Z,11.10
2023-01-05T13:55:37.225Z,11.10
2023-01-05T13:58:05.387Z,11.20
2023-01-05T14:00:37.963Z,11.20
2023-01-05T14:03:14.075Z,11.10
2023-01-05T14:05:49.373Z,11.10
2023-01-05T14:08:22.839Z,11.10
2023-01-05T14:11:10.645Z,11.20
2023-01-05T14:13:41.628Z,11.10
2023-01-05T14:16:27.346Z,11.10
2023-01-05T14:19:02.309Z,11.00
2023-01-05T14:22:01.702Z,11.10
2023-01-05T14:24:31.472Z,11.00
2023-01-05T14:26:59.613Z,10.90
2023-01-05T14:29:44.818Z,10.80
2023-01-05T14:32:19.344Z,10.80
2023-01-05T14:34:48.113Z,10.80
2023-01-05T14:37:25.159Z,10.70
2023-01-05T14:39:54.825Z,10.70
2023-01-05T14:42:38.286Z,10.70
2023-01-05T14:45:06.991Z,10.60
2023-01-05T14:47:34.039Z,10.70
2023-01-05T14:50:04.203Z,10.70
2023-01-05T14:52:49.724Z,10.70
2023-01-05T14:55:39.395Z,10.60
2023-01-05T14:58:26.767Z,10.50
2023-01-05T15:00:56.167Z,10.50
2023-01-05T15:04:02.368Z,10.50
2023-01-05T15:06:29.275Z,10.40
2023-01-05T15:08:59.191Z,10.30
2023-01-05T15:11:39.378Z,10.30
2023-01-05T15:14:35.378Z,10.30
2023-01-05T15:17:11.062Z,10.50
2023-01-05T15:19:57.945Z,10.40
2023-01-05T15:22:43.531Z,10.40
2023-01-05T15:25:22.831Z,10.50
2023-01-05T15:27:54.047Z,10.60
2023-01-05T15:30:33.226Z,10.70
2023-01-05T15:33:19.165Z,10.60
2023-01-05T15:35:51.853Z,10.70
2023-01-05T15:38:23.330Z,10.70
2023-01-05T15:40:54.961Z,10.60
2023-01-05T15:43:23.296Z,10.60
2023-01-05T15:45:53.661Z,10.50
2023-01-05T15:48:30.941Z,10.40
2023-01-05T15:50:58.763Z,10.50
2023-01-05T15:53:33.573Z,10.40
2023-01-05T15:56:01.081Z,10.30
2023-01-05T15:58:30.036Z,10.30
2023-01-05T16:01:02.318Z,10.20
2023-01-05T16:03:30.579Z,10.20
2023-01-05T16:06:00.470Z,10.30
2023-01-05T16:08:27.787Z,10.20
2023-01-05T16:11:02.154Z,10.20
2023-01-05T16:13:32.221Z,10.20
2023-01-05T16:16:00.721Z,10.10
2023-01-05T16:18:30.577Z,10.10
2023-01-05T16:20:57.881Z,10.10
2023-01-05T16:23:29.224Z,10.00
2023-01-05T16:25:57.768Z,10.00
2023-01-05T16:28:25.491Z,9.90
2023-01-05T16:30:53.686Z,9.70
2023-01-05T16:33:23.839Z,9.70
2023-01-05T16:35:55.978Z,9.70
2023-01-05T16:38:29.982Z,9.70
2023-01-05T16:41:13.510Z,9.70
2023-01-05T16:43:42.009Z,9.70
2023-01-05T16:46:18.735Z,9.70
2023-01-05T16:48:50.003Z,9.60
2023-01-05T16:51:18.459Z,9.50
2023-01-05T16:53:46.943Z,9.50
2023-01-05T16:56:32.339Z,9.50
2023-01-05T16:59:04.424Z,9.40
2023-01-05T17:01:35.981Z,9.40
2023-01-05T17:04:18.648Z,9.40
2023-01-05T17:06:50.304Z,9.50
2023-01-05T17:09:17.207Z,9.50
2023-01-05T17:11:47.487Z,9.50
2023-01-05T17:14:17.117Z,9.40
2023-01-05T17:16:44.229Z,9.40
2023-01-05T17:19:20.159Z,9.50
2023-01-05T17:21:51.866Z,9.40
2023-01-05T17:24:18.945Z,9.40
2023-01-05T17:26:46.880Z,9.40
2023-01-05T17:29:21.604Z,9.30
2023-01-05T17:31:48.874Z,9.30
2023-01-05T17:34:19.621Z,9.30
2023-01-05T17:36:47.752Z,9.20
2023-01-05T17:39:17.730Z,9.10
2023-01-05T17:41:45.259Z,9.10
2023-01-05T17:44:12.452Z,9.10
2023-01-05T17:46:42.988Z,9.00
2023-01-05T17:49:15.538Z,9.00
2023-01-05T17:51:42.963Z,9.00
2023-01-05T17:54:10.217Z,8.90
2023-01-05T17:56:37.403Z,8.90
2023-01-05T17:59:05.537Z,8.90
2023-01-05T18:01:34.103Z,8.90
2023-01-05T18:04:16.368Z,8.80
2023-01-05T18:06:43.882Z,8.90
2023-01-05T18:09:10.916Z,8.90
2023-01-05T18:11:39.260Z,8.90
2023-01-05T18:16:34.878Z,8.80
2023-01-05T18:19:05.908Z,8.80
2023-01-05T18:24:06.078Z,8.80
2023-01-05T18:26:34.331Z,8.80
2023-01-05T18:29:01.369Z,8.80
2023-01-05T18:31:28.789Z,8.90
2023-01-05T18:33:56.584Z,8.90
2023-01-05T18:36:23.633Z,8.90
2023-01-05T18:38:51.791Z,8.80
2023-01-05T18:41:24.315Z,8.80
2023-01-05T18:43:51.372Z,8.90
2023-01-05T18:46:20.968Z,8.90
2023-01-05T18:48:52.986Z,8.90
2023-01-05T18:51:23.296Z,8.90
2023-01-05T18:53:50.980Z,8.90
2023-01-05T18:56:18.156Z,8.90
2023-01-05T18:58:50.116Z,8.90
2023-01-05T19:01:18.821Z,8.90
2023-01-05T19:03:48.705Z,8.90
2023-01-05T19:06:17.745Z,8.90
2023-01-05T19:09:22.905Z,8.90
2023-01-05T19:11:50.048Z,8.90
2023-01-05T19:14:18.193Z,8.90
2023-01-05T19:16:45.340Z,9.00
2023-01-05T19:19:13.901Z,8.90
2023-01-05T19:21:43.035Z,9.00
2023-01-05T19:24:14.910Z,9.10
2023-01-05T19:26:44.771Z,9.00
2023-01-05T19:29:11.905Z,9.00
2023-01-05T19:31:38.960Z,9.10
2023-01-05T19:34:05.899Z,9.10
2023-01-05T19:36:34.871Z,9.00
2023-01-05T19:39:02.411Z,9.00
2023-01-05T19:41:29.563Z,9.00
2023-01-05T19:43:57.142Z,9.00
2023-01-05T19:46:24.880Z,9.00
2023-01-05T19:49:00.265Z,9.00
2023-01-05T19:51:28.496Z,9.00
2023-01-05T19:53:56.584Z,9.00
2023-01-05T19:56:24.401Z,9.00
2023-01-05T19:58:55.671Z,9.00
2023-01-05T20:01:23.193Z,9.10
2023-01-05T20:03:50.129Z,9.00
2023-01-05T20:06:19.549Z,9.00
2023-01-05T20:08:52.364Z,9.00
2023-01-05T20:14:23.000Z,9.00
2023-01-05T20:17:06.834Z,9.00
2023-01-05T20:19:34.393Z,9.00
2023-01-05T20:22:04.713Z,9.00
2023-01-05T20:24:38.207Z,9.00
2023-01-05T20:27:06.254Z,9.00
2023-01-05T20:29:33.096Z,9.00
2023-01-05T20:32:01.709Z,9.00
2023-01-05T20:34:50.541Z,9.00
2023-01-05T20:37:17.403Z,9.00
2023-01-05T20:40:16.057Z,9.00
2023-01-05T20:42:35.564Z,9.00
2023-01-05T20:45:03.882Z,9.00
2023-01-05T20:47:39.405Z,9.00
2023-01-05T20:53:17.339Z,9.00
2023-01-05T20:56:50.790Z,9.10
2023-01-05T20:59:27.489Z,9.00
2023-01-05T21:02:02.708Z,9.00
2023-01-05T21:04:32.777Z,9.00
2023-01-05T21:13:35.467Z,9.00
2023-01-05T21:16:14.481Z,9.00
2023-01-05T21:18:41.636Z,8.90
2023-01-05T21:21:15.208Z,8.90
2023-01-05T21:23:43.145Z,8.90
2023-01-05T21:26:12.297Z,8.90
2023-01-05T21:28:44.639Z,8.90
2023-01-05T21:31:12.689Z,8.90
2023-01-05T21:33:40.414Z,8.90
2023-01-05T21:36:07.872Z,8.90
2023-01-05T21:39:02.124Z,8.90
2023-01-05T21:41:42.389Z,8.90
2023-01-05T21:44:10.748Z,8.90
2023-01-05T21:46:38.265Z,8.90
2023-01-05T21:49:05.165Z,8.90
2023-01-05T21:51:50.315Z,8.90
2023-01-05T21:54:36.215Z,8.90
2023-01-05T21:57:07.398Z,8.90
2023-01-05T21:59:34.233Z,8.90
2023-01-05T22:02:04.687Z,8.90
2023-01-05T22:10:35.263Z,8.90
2023-01-05T22:13:02.581Z,8.90
2023-01-05T22:15:29.187Z,8.90
2023-01-05T22:17:55.832Z,8.80
2023-01-05T22:20:22.499Z,8.80
2023-01-05T22:22:49.220Z,8.80
2023-01-05T22:25:20.550Z,8.80
2023-01-05T22:27:49.587Z,8.80
2023-01-05T22:30:16.363Z,8.80
2023-01-05T22:32:42.962Z,8.70
2023-01-05T22:35:13.011Z,8.80
2023-01-05T22:37:39.616Z,8.70
2023-01-05T22:42:54.448Z,8.70
2023-01-05T22:46:01.418Z,8.70
2023-01-05T22:48:28.393Z,8.70
2023-01-05T22:53:52.657Z,8.60
2023-01-05T22:56:20.533Z,8.70
2023-01-05T22:58:47.185Z,8.60
2023-01-05T23:01:14.951Z,8.60
2023-01-05T23:03:41.816Z,8.60
2023-01-05T23:06:08.877Z,8.60
2023-01-05T23:08:37.704Z,8.60
2023-01-05T23:11:14.523Z,8.60
2023-01-05T23:13:41.660Z,8.60
2023-01-05T23:16:11.588Z,8.60
2023-01-05T23:18:38.806Z,8.60
2023-01-05T23:21:07.371Z,8.60
2023-01-05T23:23:34.107Z,8.60
2023-01-05T23:26:01.188Z,8.60
2023-01-05T23:28:32.013Z,8.60
2023-01-05T23:30:59.269Z,8.60
2023-01-05T23:33:35.279Z,8.60
2023-01-05T23:36:02.375Z,8.60
2023-01-05T23:38:32.804Z,8.70
2023-01-05T23:41:00.288Z,8.60
2023-01-05T23:43:35.385Z,8.60
2023-01-05T23:47:40.411Z,8.60
2023-01-05T23:48:58.080Z,8.60
2023-01-05T23:52:02.555Z,8.60
2023-01-05T23:54:22.831Z,8.60
2023-01-05T23:56:49.460Z,8.60
2023-01-05T23:59:20.250Z,8.60
